createdAt,value
2018-12-07T00:01:28.631Z,8.03
2018-12-07T00:03:58.546Z,5.57
2018-12-07T00:06:28.658Z,12.03
2018-12-07T00:08:58.729Z,9.03
2018-12-07T00:11:28.554Z,8.90
2018-12-07T00:13:58.375Z,8.93
2018-12-07T00:16:28.306Z,7.97
2018-12-07T00:18:58.097Z,8.47
2018-12-07T00:21:27.953Z,5.63
2018-12-07T00:23:58.354Z,11.77
2018-12-07T00:26:28.057Z,4.93
2018-12-07T00:28:58.445Z,9.57
2018-12-07T00:31:28.843Z,10.90
2018-12-07T00:33:58.821Z,9.97
2018-12-07T00:36:28.637Z,11.20
2018-12-07T00:38:58.376Z,7.97
2018-12-07T00:41:28.257Z,7.30
2018-12-07T00:43:58.204Z,7.73
2018-12-07T00:46:28.199Z,6.17
2018-12-07T00:48:58.100Z,5.70
2018-12-07T00:51:27.945Z,8.07
2018-12-07T00:53:58.022Z,8.67
2018-12-07T00:56:27.970Z,6.87
2018-12-07T00:58:58.192Z,11.40
2018-12-07T01:01:28.149Z,7.20
2018-12-07T01:03:58.002Z,7.80
2018-12-07T01:06:27.977Z,10.20
2018-12-07T01:08:57.996Z,8.37
2018-12-07T01:11:27.948Z,10.10
2018-12-07T01:13:57.661Z,9.33
2018-12-07T01:16:27.461Z,9.73
2018-12-07T01:18:57.200Z,9.07
2018-12-07T01:21:26.986Z,10.17
2018-12-07T01:23:57.377Z,8.63
2018-12-07T01:26:27.245Z,8.97
2018-12-07T01:28:57.175Z,8.50
2018-12-07T01:31:27.590Z,8.37
2018-12-07T01:33:57.410Z,9.37
2018-12-07T01:36:27.215Z,6.57
2018-12-07T01:38:57.022Z,6.70
2018-12-07T01:41:26.830Z,6.83
2018-12-07T01:43:56.841Z,5.77
2018-12-07T01:46:26.535Z,8.93
2018-12-07T01:48:57.004Z,6.73
2018-12-07T01:51:26.671Z,7.03
2018-12-07T01:53:56.390Z,8.53
2018-12-07T01:56:26.086Z,8.93
2018-12-07T01:58:55.983Z,6.67
2018-12-07T02:01:25.827Z,8.37
2018-12-07T02:03:55.573Z,9.30
2018-12-07T02:06:25.477Z,6.03
2018-12-07T02:08:55.339Z,7.33
2018-12-07T02:11:25.229Z,7.50
2018-12-07T02:13:55.002Z,6.50
2018-12-07T02:16:24.880Z,6.40
2018-12-07T02:18:54.619Z,6.27
2018-12-07T02:21:25.109Z,7.07
2018-12-07T02:23:55.033Z,8.93
2018-12-07T02:26:25.798Z,10.83
2018-12-07T02:28:55.737Z,7.93
2018-12-07T02:31:25.685Z,8.97
2018-12-07T02:33:56.481Z,7.33
2018-12-07T02:36:26.181Z,7.73
2018-12-07T02:38:56.237Z,7.47
2018-12-07T02:41:26.764Z,9.00
2018-12-07T02:43:56.628Z,7.70
2018-12-07T02:46:26.412Z,4.77
2018-12-07T02:48:56.392Z,7.93
2018-12-07T02:51:26.344Z,6.43
2018-12-07T02:53:56.320Z,10.70
2018-12-07T02:56:26.250Z,6.63
2018-12-07T02:58:56.646Z,5.33
2018-12-07T03:01:26.376Z,7.63
2018-12-07T03:03:57.095Z,4.63
2018-12-07T03:06:26.924Z,6.57
2018-12-07T03:08:56.792Z,7.90
2018-12-07T03:11:26.671Z,7.27
2018-12-07T03:13:56.597Z,6.43
2018-12-07T03:16:26.376Z,7.43
2018-12-07T03:18:56.181Z,6.23
2018-12-07T03:21:26.623Z,5.13
2018-12-07T03:23:56.433Z,6.00
2018-12-07T03:26:26.199Z,4.93
2018-12-07T03:28:56.130Z,8.00
2018-12-07T03:31:26.072Z,5.40
2018-12-07T03:33:56.026Z,4.67
2018-12-07T03:36:25.776Z,8.17
2018-12-07T03:38:55.776Z,4.90
2018-12-07T03:41:25.653Z,6.70
2018-12-07T03:43:55.337Z,4.60
2018-12-07T03:46:25.361Z,6.37
2018-12-07T03:48:55.468Z,5.30
2018-12-07T03:51:25.318Z,7.10
2018-12-07T03:53:55.188Z,6.63
2018-12-07T03:56:25.113Z,7.17
2018-12-07T03:58:54.908Z,5.57
2018-12-07T04:01:24.721Z,7.13
2018-12-07T04:03:54.639Z,9.90
2018-12-07T04:06:24.531Z,4.00
2018-12-07T04:08:54.785Z,4.53
2018-12-07T04:11:24.534Z,5.17
2018-12-07T04:13:54.206Z,4.27
2018-12-07T04:16:24.291Z,6.40
2018-12-07T04:18:54.059Z,5.77
2018-12-07T04:21:23.873Z,4.53
2018-12-07T04:23:53.621Z,4.83
2018-12-07T04:26:23.690Z,4.80
2018-12-07T04:28:53.666Z,3.43
2018-12-07T04:31:23.422Z,5.03
2018-12-07T04:33:53.247Z,5.27
2018-12-07T04:36:23.159Z,3.63
2018-12-07T04:38:53.034Z,6.23
2018-12-07T04:41:23.143Z,3.80
2018-12-07T04:43:52.978Z,3.07
2018-12-07T04:46:22.696Z,3.90
2018-12-07T04:48:52.738Z,4.03
2018-12-07T04:51:22.704Z,5.00
2018-12-07T04:53:52.614Z,4.63
2018-12-07T04:56:22.581Z,7.40
2018-12-07T04:58:52.272Z,10.63
2018-12-07T05:01:21.975Z,14.20
2018-12-07T05:03:51.875Z,6.90
2018-12-07T05:06:21.626Z,11.90
2018-12-07T05:08:51.437Z,8.70
2018-12-07T05:11:21.582Z,9.77
2018-12-07T05:13:51.383Z,10.50
2018-12-07T05:16:21.265Z,10.80
2018-12-07T05:18:51.178Z,10.60
2018-12-07T05:21:20.958Z,11.17
2018-12-07T05:23:50.788Z,15.43
2018-12-07T05:26:20.627Z,10.47
2018-12-07T05:28:50.323Z,11.77
2018-12-07T05:31:20.041Z,12.30
2018-12-07T05:33:49.772Z,11.50
2018-12-07T05:36:19.467Z,8.70
2018-12-07T05:38:49.231Z,13.13
2018-12-07T05:41:18.989Z,13.40
2018-12-07T05:43:57.564Z,10.23
2018-12-07T05:46:27.547Z,14.10
2018-12-07T05:48:57.454Z,17.27
2018-12-07T05:51:27.241Z,14.43
2018-12-07T05:53:57.725Z,12.40
2018-12-07T05:56:27.481Z,15.50
2018-12-07T05:58:57.289Z,13.20
2018-12-07T06:01:27.075Z,12.83
2018-12-07T06:03:56.834Z,13.67
2018-12-07T06:06:26.712Z,13.10
2018-12-07T06:08:57.020Z,10.90
2018-12-07T06:11:26.970Z,12.40
2018-12-07T06:13:56.912Z,9.83
2018-12-07T06:16:28.146Z,12.50
2018-12-07T06:18:57.879Z,11.20
2018-12-07T06:21:27.550Z,12.43
2018-12-07T06:23:57.560Z,9.47
2018-12-07T06:26:27.578Z,8.57
2018-12-07T06:28:57.503Z,10.63
2018-12-07T06:31:27.430Z,9.10
2018-12-07T06:33:57.215Z,10.77
2018-12-07T06:36:26.884Z,13.30
2018-12-07T06:38:56.581Z,16.93
2018-12-07T06:41:26.278Z,15.80
2018-12-07T06:43:56.320Z,13.50
2018-12-07T06:46:26.217Z,9.87
2018-12-07T06:49:13.554Z,12.43
2018-12-07T06:51:45.107Z,12.97
2018-12-07T06:54:14.948Z,21.57
2018-12-07T06:56:44.696Z,10.13
2018-12-07T06:59:14.453Z,11.23
2018-12-07T07:01:44.096Z,15.40
2018-12-07T07:04:14.002Z,13.33
2018-12-07T07:06:43.740Z,12.57
2018-12-07T07:09:13.576Z,11.57
2018-12-07T07:11:43.211Z,14.00
2018-12-07T07:14:12.955Z,15.50
2018-12-07T07:16:43.017Z,15.17
2018-12-07T07:19:12.657Z,15.93
2018-12-07T07:21:42.401Z,13.17
2018-12-07T07:24:12.149Z,13.47
2018-12-07T07:26:41.807Z,9.20
2018-12-07T07:29:11.565Z,13.13
2018-12-07T07:31:43.575Z,10.37
2018-12-07T07:34:13.086Z,18.13
2018-12-07T07:36:42.824Z,16.73
2018-12-07T07:39:12.562Z,19.07
2018-12-07T07:41:42.246Z,18.73
2018-12-07T07:44:12.262Z,16.10
2018-12-07T07:46:42.469Z,18.63
2018-12-07T07:49:12.326Z,16.17
2018-12-07T07:51:42.009Z,16.23
2018-12-07T07:54:11.851Z,21.57
2018-12-07T07:56:41.608Z,20.87
2018-12-07T08:02:00.702Z,14.23
2018-12-07T08:04:30.734Z,20.83
2018-12-07T08:07:00.611Z,20.13
2018-12-07T08:09:30.381Z,17.30
2018-12-07T08:12:00.045Z,12.50
2018-12-07T08:14:29.817Z,14.50
2018-12-07T08:16:59.805Z,11.70
2018-12-07T08:19:31.172Z,11.63
2018-12-07T08:22:00.822Z,9.93
2018-12-07T08:24:30.574Z,11.30
2018-12-07T08:27:00.290Z,16.30
2018-12-07T08:29:30.216Z,17.30
2018-12-07T08:32:00.347Z,13.43
2018-12-07T08:34:30.061Z,15.03
2018-12-07T08:36:59.704Z,11.23
2018-12-07T08:39:29.360Z,11.27
2018-12-07T08:42:06.527Z,10.83
2018-12-07T08:44:32.021Z,8.73
2018-12-07T08:47:01.733Z,8.90
2018-12-07T08:49:36.571Z,10.70
2018-12-07T08:52:06.733Z,6.43
2018-12-07T08:54:36.640Z,8.20
2018-12-07T08:57:06.658Z,9.47
2018-12-07T08:59:36.567Z,10.50
2018-12-07T09:02:07.068Z,8.23
2018-12-07T09:04:36.976Z,7.77
2018-12-07T09:07:07.885Z,8.40
2018-12-07T09:09:38.069Z,11.27
2018-12-07T09:12:08.019Z,10.33
2018-12-07T09:14:38.017Z,12.30
2018-12-07T09:17:07.698Z,14.07
2018-12-07T09:19:37.690Z,12.10
2018-12-07T09:22:07.729Z,11.93
2018-12-07T09:24:37.712Z,10.60
2018-12-07T09:27:08.197Z,7.83
2018-12-07T09:29:37.990Z,9.37
2018-12-07T09:32:07.709Z,6.00
2018-12-07T09:34:38.025Z,6.13
2018-12-07T09:37:07.820Z,6.97
2018-12-07T09:39:38.120Z,4.67
2018-12-07T09:42:07.991Z,5.43
2018-12-07T09:44:39.277Z,6.90
2018-12-07T09:47:09.065Z,7.93
2018-12-07T09:49:38.998Z,4.77
2018-12-07T09:52:08.691Z,4.07
2018-12-07T09:54:38.554Z,5.13
2018-12-07T09:57:08.478Z,3.27
2018-12-07T09:59:38.269Z,4.50
2018-12-07T10:02:08.063Z,2.73
2018-12-07T10:04:37.959Z,2.93
2018-12-07T10:07:07.857Z,2.07
2018-12-07T10:09:38.183Z,3.80
2018-12-07T10:12:08.110Z,3.23
2018-12-07T10:14:37.784Z,3.97
2018-12-07T10:17:07.699Z,4.67
2018-12-07T10:19:37.606Z,5.33
2018-12-07T10:22:07.594Z,9.37
2018-12-07T10:24:37.352Z,4.13
2018-12-07T10:27:08.638Z,3.93
2018-12-07T10:29:38.976Z,4.00
2018-12-07T10:32:08.975Z,4.30
2018-12-07T10:34:38.883Z,4.20
2018-12-07T10:37:08.972Z,5.60
2018-12-07T10:39:38.689Z,6.47
2018-12-07T10:42:08.337Z,5.27
2018-12-07T10:44:38.200Z,11.20
2018-12-07T10:47:07.959Z,11.93
2018-12-07T10:49:37.741Z,10.40
2018-12-07T10:52:07.578Z,7.23
2018-12-07T10:54:37.458Z,4.60
2018-12-07T10:57:07.311Z,7.37
2018-12-07T10:59:37.356Z,6.30
2018-12-07T11:02:12.397Z,3.67
2018-12-07T11:04:47.265Z,8.13
2018-12-07T11:08:26.056Z,3.23
2018-12-07T11:10:56.611Z,4.63
2018-12-07T11:13:31.519Z,1.57
2018-12-07T11:16:06.641Z,2.23
2018-12-07T11:18:41.855Z,3.07
2018-12-07T11:21:17.807Z,2.37
2018-12-07T11:23:54.117Z,1.97
2018-12-07T11:27:33.157Z,2.00
2018-12-07T11:30:08.176Z,2.90
2018-12-07T11:33:41.674Z,2.03
2018-12-07T11:36:11.410Z,1.73
2018-12-07T11:38:41.062Z,2.23
2018-12-07T11:41:10.942Z,1.70
2018-12-07T11:43:40.918Z,1.70
2018-12-07T11:46:10.696Z,4.07
2018-12-07T11:48:41.222Z,2.40
2018-12-07T11:51:11.147Z,1.90
2018-12-07T11:53:40.861Z,1.97
2018-12-07T11:56:10.656Z,1.30
2018-12-07T11:58:41.086Z,0.97
2018-12-07T12:01:11.040Z,1.43
2018-12-07T12:03:40.671Z,1.60
2018-12-07T12:06:10.469Z,2.70
2018-12-07T12:08:40.226Z,2.20
2018-12-07T12:11:09.986Z,2.00
2018-12-07T12:13:39.904Z,2.73
2018-12-07T12:16:09.652Z,2.67
2018-12-07T12:18:39.390Z,1.80
2018-12-07T12:21:09.251Z,3.30
2018-12-07T12:23:39.787Z,1.13
2018-12-07T12:26:09.554Z,0.93
2018-12-07T12:28:39.310Z,0.80
2018-12-07T12:31:09.297Z,1.00
2018-12-07T12:33:39.113Z,2.50
2018-12-07T12:36:08.900Z,1.37
2018-12-07T12:38:38.739Z,1.07
2018-12-07T12:41:08.510Z,2.37
2018-12-07T12:43:38.377Z,1.00
2018-12-07T12:46:08.144Z,1.10
2018-12-07T12:48:38.000Z,0.50
2018-12-07T12:51:07.854Z,2.00
2018-12-07T12:53:37.559Z,0.90
2018-12-07T12:56:07.665Z,1.13
2018-12-07T12:58:37.450Z,1.03
2018-12-07T13:01:07.129Z,0.77
2018-12-07T13:03:36.860Z,1.97
2018-12-07T13:06:06.857Z,1.37
2018-12-07T13:08:36.600Z,1.27
2018-12-07T13:11:06.425Z,4.27
2018-12-07T13:13:36.195Z,2.90
2018-12-07T13:16:05.879Z,4.33
2018-12-07T13:18:35.635Z,5.83
2018-12-07T13:21:05.583Z,2.03
2018-12-07T13:23:35.572Z,2.47
2018-12-07T13:26:05.938Z,5.30
2018-12-07T13:28:35.795Z,2.17
2018-12-07T13:31:05.522Z,2.63
2018-12-07T13:33:35.740Z,3.73
2018-12-07T13:36:05.495Z,1.77
2018-12-07T13:38:35.147Z,1.73
2018-12-07T13:41:05.158Z,3.17
2018-12-07T13:43:35.349Z,8.10
2018-12-07T13:46:05.540Z,5.87
2018-12-07T13:48:35.436Z,4.00
2018-12-07T13:51:05.422Z,5.27
2018-12-07T13:53:35.579Z,6.67
2018-12-07T13:56:05.437Z,3.13
2018-12-07T13:58:35.555Z,3.37
2018-12-07T14:01:06.718Z,1.17
2018-12-07T14:03:37.389Z,1.00
2018-12-07T14:06:07.242Z,4.00
2018-12-07T14:08:37.219Z,3.17
2018-12-07T14:11:07.401Z,3.47
2018-12-07T14:13:37.935Z,1.20
2018-12-07T14:16:07.916Z,1.90
2018-12-07T14:18:38.264Z,0.70
2018-12-07T14:21:08.073Z,1.10
2018-12-07T14:23:38.013Z,1.37
2018-12-07T14:26:07.912Z,2.00
2018-12-07T14:28:38.647Z,4.60
2018-12-07T14:31:08.934Z,5.83
2018-12-07T14:33:39.144Z,6.77
2018-12-07T14:36:09.343Z,5.27
2018-12-07T14:38:39.425Z,7.40
2018-12-07T14:41:09.506Z,5.50
2018-12-07T14:43:39.563Z,4.77
2018-12-07T14:46:09.528Z,3.77
2018-12-07T14:48:39.362Z,3.23
2018-12-07T14:51:09.425Z,2.80
2018-12-07T14:53:39.724Z,0.70
2018-12-07T14:56:09.648Z,3.63
2018-12-07T14:58:39.592Z,2.10
2018-12-07T15:01:09.839Z,2.47
2018-12-07T15:03:39.896Z,3.93
2018-12-07T15:06:09.978Z,1.73
2018-12-07T15:08:40.279Z,1.27
2018-12-07T15:11:10.435Z,1.37
2018-12-07T15:13:40.671Z,3.80
2018-12-07T15:16:10.973Z,1.50
2018-12-07T15:18:41.220Z,3.13
2018-12-07T15:21:11.941Z,0.77
2018-12-07T15:23:41.850Z,4.87
2018-12-07T15:26:11.899Z,2.00
2018-12-07T15:28:42.007Z,2.33
2018-12-07T15:31:11.923Z,4.20
2018-12-07T15:33:42.214Z,3.00
2018-12-07T15:36:12.251Z,3.07
2018-12-07T15:38:42.456Z,2.13
2018-12-07T15:41:12.280Z,0.80
2018-12-07T15:43:42.205Z,2.83
2018-12-07T15:46:12.332Z,2.13
2018-12-07T15:48:42.247Z,3.83
2018-12-07T15:51:12.071Z,3.73
2018-12-07T15:53:42.097Z,1.60
2018-12-07T15:56:12.339Z,1.43
2018-12-07T15:58:42.661Z,2.13
2018-12-07T16:01:12.722Z,1.40
2018-12-07T16:03:42.637Z,3.30
2018-12-07T16:06:12.717Z,3.00
2018-12-07T16:08:42.755Z,2.37
2018-12-07T16:11:12.571Z,1.00
2018-12-07T16:13:42.469Z,2.07
2018-12-07T16:16:13.262Z,1.27
2018-12-07T16:18:43.388Z,1.40
2018-12-07T16:21:13.800Z,1.07
2018-12-07T16:23:44.046Z,1.00
2018-12-07T16:26:14.201Z,0.97
2018-12-07T16:28:44.848Z,1.90
2018-12-07T16:31:14.985Z,1.53
2018-12-07T16:33:45.158Z,2.30
2018-12-07T16:36:15.727Z,1.83
2018-12-07T16:38:46.092Z,1.47
2018-12-07T16:41:16.264Z,1.80
2018-12-07T16:43:47.191Z,2.77
2018-12-07T16:46:17.303Z,3.17
2018-12-07T16:48:47.403Z,1.47
2018-12-07T16:51:18.125Z,1.53
2018-12-07T16:53:48.092Z,2.03
2018-12-07T16:56:18.628Z,1.80
2018-12-07T16:58:49.326Z,1.17
2018-12-07T17:01:19.674Z,2.03
2018-12-07T17:03:49.864Z,1.73
2018-12-07T17:06:19.995Z,2.33
2018-12-07T17:08:49.944Z,1.33
2018-12-07T17:11:19.933Z,1.13
2018-12-07T17:13:50.054Z,1.03
2018-12-07T17:16:20.177Z,2.70
2018-12-07T17:18:50.278Z,1.33
2018-12-07T17:21:20.495Z,2.70
2018-12-07T17:23:51.045Z,1.07
2018-12-07T17:26:21.156Z,6.03
2018-12-07T17:28:51.061Z,5.80
2018-12-07T17:31:21.098Z,4.70
2018-12-07T17:33:51.354Z,2.47
2018-12-07T17:36:21.459Z,1.67
2018-12-07T17:38:51.345Z,4.03
2018-12-07T17:41:21.172Z,1.80
2018-12-07T17:43:52.198Z,5.53
2018-12-07T17:46:22.691Z,14.97
2018-12-07T17:48:52.506Z,9.33
2018-12-07T17:51:22.558Z,2.77
2018-12-07T17:53:53.844Z,3.33
2018-12-07T17:56:23.630Z,2.13
2018-12-07T17:58:53.856Z,2.43
2018-12-07T18:01:23.865Z,1.87
2018-12-07T18:03:53.823Z,4.80
2018-12-07T18:06:23.896Z,4.13
2018-12-07T18:08:54.081Z,3.87
2018-12-07T18:11:24.359Z,3.77
2018-12-07T18:13:55.078Z,3.90
2018-12-07T18:16:25.104Z,5.70
2018-12-07T18:18:55.561Z,4.67
2018-12-07T18:21:25.662Z,6.53
2018-12-07T18:23:55.611Z,3.77
2018-12-07T18:26:25.418Z,5.33
2018-12-07T18:28:55.282Z,5.10
2018-12-07T18:31:26.147Z,4.67
2018-12-07T18:33:56.704Z,5.87
2018-12-07T18:36:27.273Z,4.60
2018-12-07T18:38:57.446Z,4.27
2018-12-07T18:41:27.545Z,7.40
2018-12-07T18:43:57.634Z,7.27
2018-12-07T18:46:27.921Z,6.70
2018-12-07T18:48:57.984Z,7.40
2018-12-07T18:51:28.125Z,6.03
2018-12-07T18:53:58.348Z,8.67
2018-12-07T18:56:29.124Z,7.37
2018-12-07T18:58:59.350Z,6.63
2018-12-07T19:01:29.419Z,6.73
2018-12-07T19:03:59.510Z,6.07
2018-12-07T19:06:29.980Z,7.17
2018-12-07T19:09:00.129Z,5.63
2018-12-07T19:11:30.284Z,4.73
2018-12-07T19:14:00.344Z,5.87
2018-12-07T19:16:31.235Z,11.30
2018-12-07T19:19:01.872Z,11.83
2018-12-07T19:21:32.458Z,11.53
2018-12-07T19:24:03.567Z,6.97
2018-12-07T19:26:33.691Z,5.70
2018-12-07T19:29:03.848Z,8.63
2018-12-07T19:31:33.777Z,7.67
2018-12-07T19:34:04.273Z,5.90
2018-12-07T19:36:34.451Z,7.43
2018-12-07T19:39:07.345Z,12.00
2018-12-07T19:44:26.894Z,10.80
2018-12-07T19:46:57.082Z,7.40
2018-12-07T19:49:27.282Z,8.10
2018-12-07T19:51:57.131Z,7.27
2018-12-07T19:54:27.224Z,12.17
2018-12-07T19:56:57.395Z,5.80
2018-12-07T19:59:27.508Z,9.63
2018-12-07T20:01:57.441Z,9.07
2018-12-07T20:04:27.543Z,9.73
2018-12-07T20:06:57.585Z,10.67
2018-12-07T20:09:27.482Z,5.87
2018-12-07T20:11:57.612Z,9.13
2018-12-07T20:14:28.200Z,10.17
2018-12-07T20:16:58.230Z,8.93
2018-12-07T20:19:28.202Z,14.37
2018-12-07T20:21:58.515Z,12.20
2018-12-07T20:24:28.391Z,9.30
2018-12-07T20:26:58.127Z,9.40
2018-12-07T20:29:27.899Z,10.03
2018-12-07T20:31:58.154Z,10.67
2018-12-07T20:34:27.950Z,10.50
2018-12-07T20:36:57.752Z,13.47
2018-12-07T20:39:28.348Z,6.87
2018-12-07T20:41:58.499Z,9.53
2018-12-07T20:44:28.212Z,9.20
2018-12-07T20:46:58.349Z,8.43
2018-12-07T20:49:28.450Z,7.17
2018-12-07T20:51:58.768Z,8.03
2018-12-07T20:54:28.760Z,9.87
2018-12-07T20:56:58.847Z,7.67
2018-12-07T20:59:29.320Z,8.77
2018-12-07T21:01:59.793Z,9.70
2018-12-07T21:04:37.606Z,13.07
2018-12-07T21:08:09.144Z,7.07
2018-12-07T21:10:59.267Z,6.10
2018-12-07T21:17:40.226Z,10.00
2018-12-07T21:20:24.212Z,9.97
2018-12-07T21:22:54.498Z,12.07
2018-12-07T21:25:24.433Z,14.83
2018-12-07T21:27:54.478Z,10.17
2018-12-07T21:30:57.942Z,10.23
2018-12-07T21:38:57.898Z,9.90
2018-12-07T21:41:27.850Z,9.33
2018-12-07T21:43:57.739Z,8.27
2018-12-07T21:46:28.568Z,12.20
2018-12-07T21:48:58.641Z,11.10
2018-12-07T21:52:11.431Z,13.43
2018-12-07T21:54:41.747Z,11.77
2018-12-07T21:57:12.096Z,12.13
2018-12-07T21:59:42.677Z,12.90
2018-12-07T22:02:12.872Z,10.80
2018-12-07T22:04:43.217Z,14.23
2018-12-07T22:07:14.022Z,11.13
2018-12-07T22:09:44.445Z,9.63
2018-12-07T22:12:14.690Z,6.93
2018-12-07T22:14:45.110Z,9.90
2018-12-07T22:17:15.504Z,7.40
2018-12-07T22:19:45.849Z,3.43
2018-12-07T22:22:17.051Z,7.60
2018-12-07T22:24:47.616Z,2.90
2018-12-07T22:27:17.606Z,6.63
2018-12-07T22:29:47.664Z,4.00
2018-12-07T22:32:17.849Z,8.17
2018-12-07T22:34:47.655Z,5.97
2018-12-07T22:37:17.972Z,8.00
2018-12-07T22:39:48.012Z,4.80
2018-12-07T22:42:17.955Z,8.97
2018-12-07T22:44:48.175Z,7.10
2018-12-07T22:47:19.232Z,6.50
2018-12-07T22:49:49.281Z,3.63
2018-12-07T22:52:19.177Z,4.70
2018-12-07T22:54:48.941Z,8.50
2018-12-07T22:57:18.718Z,7.90
2018-12-07T22:59:49.228Z,9.27
2018-12-07T23:02:19.364Z,6.87
2018-12-07T23:04:49.341Z,9.10
2018-12-07T23:07:20.040Z,8.30
2018-12-07T23:09:49.817Z,8.10
2018-12-07T23:12:19.884Z,12.43
2018-12-07T23:14:49.952Z,15.10
2018-12-07T23:17:19.756Z,12.87
2018-12-07T23:19:49.675Z,10.37
2018-12-07T23:22:19.595Z,12.83
2018-12-07T23:24:49.328Z,14.03
2018-12-07T23:27:19.284Z,13.30
2018-12-07T23:29:49.432Z,11.93
2018-12-07T23:32:19.512Z,10.97
2018-12-07T23:34:49.427Z,8.97
2018-12-07T23:37:20.271Z,15.60
2018-12-07T23:39:50.251Z,12.70
2018-12-07T23:42:20.044Z,10.93
2018-12-07T23:44:49.870Z,13.63
2018-12-07T23:47:19.846Z,11.90
2018-12-07T23:49:49.742Z,8.27
2018-12-07T23:52:19.551Z,11.60
2018-12-07T23:54:49.376Z,11.13
2018-12-07T23:57:19.129Z,15.37
2018-12-07T23:59:48.876Z,11.97
